createdAt,value
2024-03-01T00:01:32.654Z,121.80
2024-03-01T00:04:00.943Z,120.60
2024-03-01T00:06:29.199Z,116.20
2024-03-01T00:08:57.410Z,113.20
2024-03-01T00:11:25.792Z,126.10
2024-03-01T00:13:54.021Z,118.60
2024-03-01T00:16:22.338Z,119.10
2024-03-01T00:18:50.596Z,122.10
2024-03-01T00:21:18.760Z,114.30
2024-03-01T00:23:47.011Z,106.90
2024-03-01T00:26:15.435Z,116.50
2024-03-01T00:28:43.562Z,108.80
2024-03-01T00:31:11.956Z,110.00
2024-03-01T00:33:40.215Z,107.30
2024-03-01T00:36:08.391Z,118.80
2024-03-01T00:38:36.764Z,112.80
2024-03-01T00:41:05.243Z,109.80
2024-03-01T00:43:35.008Z,110.00
2024-03-01T00:46:03.563Z,110.40
2024-03-01T00:48:33.652Z,113.10
2024-03-01T00:51:01.832Z,108.50
2024-03-01T00:53:30.219Z,112.80
2024-03-01T00:55:58.681Z,114.70
2024-03-01T00:58:27.214Z,113.00
2024-03-01T01:00:55.676Z,115.80
2024-03-01T01:03:24.150Z,105.40
2024-03-01T01:05:52.499Z,113.40
2024-03-01T01:08:20.774Z,109.60
2024-03-01T01:10:49.001Z,103.80
2024-03-01T01:13:17.245Z,106.60
2024-03-01T01:15:45.496Z,105.70
2024-03-01T01:18:15.613Z,107.60
2024-03-01T01:20:45.113Z,102.00
2024-03-01T01:23:13.291Z,106.40
2024-03-01T01:25:43.565Z,98.20
2024-03-01T01:30:40.059Z,108.60
2024-03-01T01:33:08.434Z,109.70
2024-03-01T01:35:36.927Z,102.80
2024-03-01T01:38:05.196Z,111.30
2024-03-01T01:40:33.499Z,100.60
2024-03-01T01:43:04.072Z,103.90
2024-03-01T01:45:33.818Z,97.10
2024-03-01T01:48:04.045Z,103.10
2024-03-01T01:50:33.632Z,101.00
2024-03-01T01:53:10.057Z,102.20
2024-03-01T01:55:45.651Z,103.30
2024-03-01T01:58:14.674Z,104.60
2024-03-01T02:00:45.295Z,98.60
2024-03-01T02:03:14.162Z,106.90
2024-03-01T02:05:42.841Z,102.80
2024-03-01T02:08:11.019Z,99.30
2024-03-01T02:10:39.276Z,97.20
2024-03-01T02:13:21.830Z,102.60
2024-03-01T02:15:52.467Z,108.00
2024-03-01T02:18:20.733Z,102.40
2024-03-01T02:21:04.026Z,97.20
2024-03-01T02:23:32.508Z,104.70
2024-03-01T02:26:00.688Z,99.80
2024-03-01T02:28:29.147Z,99.10
2024-03-01T02:30:57.701Z,93.30
2024-03-01T02:33:26.331Z,104.50
2024-03-01T02:35:54.637Z,106.30
2024-03-01T02:38:22.768Z,98.50
2024-03-01T02:40:50.945Z,93.70
2024-03-01T02:43:19.144Z,94.70
2024-03-01T02:45:47.388Z,93.80
2024-03-01T02:48:15.704Z,91.60
2024-03-01T02:50:43.941Z,97.90
2024-03-01T02:53:12.113Z,96.80
2024-03-01T02:55:40.332Z,91.40
2024-03-01T02:58:08.593Z,95.00
2024-03-01T03:00:36.882Z,91.70
2024-03-01T03:03:05.316Z,89.80
2024-03-01T03:05:33.690Z,89.10
2024-03-01T03:08:02.001Z,92.20
2024-03-01T03:10:30.277Z,91.40
2024-03-01T03:12:58.648Z,83.50
2024-03-01T03:15:27.412Z,86.00
2024-03-01T03:17:55.529Z,90.00
2024-03-01T03:20:23.755Z,82.40
2024-03-01T03:22:51.821Z,90.70
2024-03-01T03:25:19.930Z,80.00
2024-03-01T03:27:48.064Z,78.10
2024-03-01T03:30:16.880Z,76.20
2024-03-01T03:32:45.341Z,71.50
2024-03-01T03:35:13.614Z,69.40
2024-03-01T03:37:41.803Z,80.10
2024-03-01T03:40:16.969Z,79.20
2024-03-01T03:42:45.719Z,74.20
2024-03-01T03:45:13.875Z,79.00
2024-03-01T03:47:42.067Z,76.70
2024-03-01T03:50:10.934Z,71.90
2024-03-01T03:52:39.219Z,77.20
2024-03-01T03:55:08.164Z,67.40
2024-03-01T03:57:36.860Z,69.80
2024-03-01T04:00:11.117Z,69.80
2024-03-01T04:02:39.892Z,65.80
2024-03-01T04:05:08.814Z,77.40
2024-03-01T04:07:37.789Z,72.30
2024-03-01T04:10:10.813Z,79.00
2024-03-01T04:12:39.033Z,73.30
2024-03-01T04:15:07.783Z,80.80
2024-03-01T04:17:36.386Z,83.30
2024-03-01T04:20:08.139Z,91.70
2024-03-01T04:22:36.475Z,89.40
2024-03-01T04:25:07.214Z,88.70
2024-03-01T04:27:35.846Z,79.10
2024-03-01T04:30:04.578Z,77.10
2024-03-01T04:32:32.844Z,82.60
2024-03-01T04:35:00.973Z,84.20
2024-03-01T04:37:29.561Z,84.70
2024-03-01T04:39:57.785Z,90.00
2024-03-01T04:42:26.108Z,90.90
2024-03-01T04:44:54.387Z,97.60
2024-03-01T04:47:22.453Z,87.50
2024-03-01T04:49:50.526Z,92.20
2024-03-01T04:52:18.831Z,92.10
2024-03-01T04:54:48.842Z,93.50
2024-03-01T04:57:17.707Z,95.60
2024-03-01T04:59:45.929Z,87.80
2024-03-01T05:02:14.182Z,91.90
2024-03-01T05:04:44.610Z,98.20
2024-03-01T05:07:13.419Z,88.60
2024-03-01T05:09:44.441Z,86.40
2024-03-01T05:12:15.016Z,90.70
2024-03-01T05:17:13.221Z,91.60
2024-03-01T05:19:42.517Z,88.10
2024-03-01T05:22:14.302Z,87.40
2024-03-01T05:24:43.120Z,84.20
2024-03-01T05:27:14.863Z,81.50
2024-03-01T05:29:43.717Z,81.70
2024-03-01T05:32:12.057Z,74.50
2024-03-01T05:34:40.818Z,71.10
2024-03-01T05:37:09.184Z,63.70
2024-03-01T05:39:37.526Z,67.90
2024-03-01T05:42:07.632Z,68.00
2024-03-01T05:44:35.921Z,74.80
2024-03-01T05:47:04.708Z,67.90
2024-03-01T05:49:32.924Z,69.20
2024-03-01T05:52:01.097Z,67.00
2024-03-01T05:54:31.024Z,68.00
2024-03-01T05:56:59.652Z,65.50
2024-03-01T05:59:28.118Z,65.40
2024-03-01T06:01:56.941Z,64.40
2024-03-01T06:04:25.349Z,64.40
2024-03-01T06:06:53.829Z,64.40
2024-03-01T06:09:22.668Z,71.30
2024-03-01T06:11:50.839Z,72.30
2024-03-01T06:14:21.886Z,76.50
2024-03-01T06:16:50.456Z,73.60
2024-03-01T06:19:18.854Z,71.20
2024-03-01T06:21:47.382Z,74.50
2024-03-01T06:24:15.589Z,78.30
2024-03-01T06:26:43.761Z,82.30
2024-03-01T06:29:11.935Z,85.00
2024-03-01T06:31:40.213Z,80.90
2024-03-01T06:34:08.654Z,87.20
2024-03-01T06:36:37.189Z,87.90
2024-03-01T06:39:05.448Z,83.20
2024-03-01T06:41:33.751Z,86.10
2024-03-01T06:44:01.787Z,82.60
2024-03-01T06:46:31.220Z,82.40
2024-03-01T06:49:02.015Z,78.70
2024-03-01T06:51:32.976Z,72.80
2024-03-01T06:54:01.240Z,83.50
2024-03-01T06:56:29.424Z,75.80
2024-03-01T06:58:58.095Z,78.90
2024-03-01T07:01:27.166Z,75.60
2024-03-01T07:03:56.713Z,78.80
2024-03-01T07:06:25.179Z,78.10
2024-03-01T07:08:53.358Z,75.50
2024-03-01T07:11:23.220Z,80.90
2024-03-01T07:13:51.431Z,76.70
2024-03-01T07:16:19.669Z,70.90
2024-03-01T07:18:47.887Z,74.60
2024-03-01T07:21:16.164Z,75.50
2024-03-01T07:23:44.530Z,71.60
2024-03-01T07:26:12.654Z,74.00
2024-03-01T07:28:40.821Z,70.20
2024-03-01T07:31:09.095Z,70.80
2024-03-01T07:33:37.328Z,73.00
2024-03-01T07:36:06.722Z,71.50
2024-03-01T07:38:34.895Z,78.10
2024-03-01T07:41:03.082Z,71.00
2024-03-01T07:43:32.005Z,69.30
2024-03-01T07:46:00.908Z,63.70
2024-03-01T07:48:29.207Z,68.90
2024-03-01T07:50:57.642Z,63.80
2024-03-01T07:53:25.874Z,67.60
2024-03-01T07:55:54.304Z,70.90
2024-03-01T07:58:23.013Z,70.90
2024-03-01T08:00:51.553Z,71.20
2024-03-01T08:03:19.706Z,60.80
2024-03-01T08:05:48.393Z,64.70
2024-03-01T08:08:29.593Z,59.90
2024-03-01T08:10:57.759Z,60.10
2024-03-01T08:13:26.030Z,57.60
2024-03-01T08:15:54.927Z,59.80
2024-03-01T08:18:25.836Z,56.30
2024-03-01T08:21:02.168Z,59.30
2024-03-01T08:23:41.128Z,58.80
2024-03-01T08:26:19.463Z,55.30
2024-03-01T08:28:49.543Z,60.50
2024-03-01T08:31:23.949Z,53.40
2024-03-01T08:34:25.778Z,50.60
2024-03-01T08:36:54.943Z,52.40
2024-03-01T08:39:24.739Z,55.90
2024-03-01T08:41:55.704Z,53.70
2024-03-01T08:44:45.960Z,48.40
2024-03-01T08:47:39.034Z,52.20
2024-03-01T08:50:39.415Z,46.70
2024-03-01T08:53:43.671Z,47.00
2024-03-01T08:56:22.048Z,46.80
2024-03-01T08:58:51.172Z,41.90
2024-03-01T09:01:41.560Z,45.30
2024-03-01T09:04:14.672Z,40.40
2024-03-01T09:06:43.292Z,41.40
2024-03-01T09:09:22.720Z,41.10
2024-03-01T09:11:53.608Z,45.20
2024-03-01T09:14:30.833Z,40.10
2024-03-01T09:17:02.116Z,39.90
2024-03-01T09:19:39.699Z,38.80
2024-03-01T09:22:08.052Z,42.50
2024-03-01T09:24:40.483Z,40.40
2024-03-01T09:27:17.774Z,39.00
2024-03-01T09:29:48.695Z,38.40
2024-03-01T09:32:17.695Z,40.40
2024-03-01T09:34:47.220Z,38.70
2024-03-01T09:37:21.657Z,35.70
2024-03-01T09:39:50.097Z,38.20
2024-03-01T09:42:33.837Z,39.20
2024-03-01T09:45:30.168Z,36.40
2024-03-01T09:48:23.526Z,35.00
2024-03-01T09:51:24.062Z,33.30
2024-03-01T09:54:30.239Z,36.40
2024-03-01T09:57:07.714Z,36.60
2024-03-01T09:59:48.478Z,36.00
2024-03-01T10:02:52.082Z,31.50
2024-03-01T10:05:41.823Z,32.00
2024-03-01T10:08:39.037Z,36.10
2024-03-01T10:11:45.195Z,34.40
2024-03-01T10:14:32.799Z,39.60
2024-03-01T10:17:37.526Z,37.70
2024-03-01T10:20:12.870Z,39.70
2024-03-01T10:22:51.363Z,33.90
2024-03-01T10:25:45.531Z,38.30
2024-03-01T10:28:29.777Z,36.30
2024-03-01T10:31:10.815Z,37.40
2024-03-01T10:33:59.615Z,36.20
2024-03-01T10:36:45.349Z,37.50
2024-03-01T10:39:16.822Z,34.10
2024-03-01T10:42:30.017Z,38.20
2024-03-01T10:45:21.744Z,37.30
2024-03-01T10:47:52.034Z,40.70
2024-03-01T10:50:21.711Z,36.20
2024-03-01T10:52:59.257Z,37.30
2024-03-01T10:55:33.721Z,34.60
2024-03-01T10:58:27.365Z,38.20
2024-03-01T11:01:00.555Z,38.90
2024-03-01T11:03:42.649Z,37.00
2024-03-01T11:06:18.701Z,33.10
2024-03-01T11:08:55.139Z,32.40
2024-03-01T11:11:31.768Z,33.60
2024-03-01T11:14:00.928Z,37.20
2024-03-01T11:16:33.518Z,34.50
2024-03-01T11:19:04.407Z,32.00
2024-03-01T11:21:32.950Z,32.90
2024-03-01T11:24:08.724Z,33.30
2024-03-01T11:26:48.231Z,34.80
2024-03-01T11:29:30.789Z,31.50
2024-03-01T11:32:07.618Z,33.00
2024-03-01T11:35:04.131Z,30.80
2024-03-01T11:38:06.917Z,32.40
2024-03-01T11:40:53.947Z,34.10
2024-03-01T11:43:39.625Z,35.40
2024-03-01T11:46:41.223Z,33.00
2024-03-01T11:49:45.202Z,33.70
2024-03-01T11:52:22.190Z,37.40
2024-03-01T11:55:03.456Z,32.50
2024-03-01T11:57:39.686Z,33.40
2024-03-01T12:00:56.681Z,32.80
2024-03-01T12:03:45.671Z,32.10
2024-03-01T12:06:16.719Z,33.70
2024-03-01T12:09:04.037Z,34.20
2024-03-01T12:11:55.682Z,33.10
2024-03-01T12:14:32.160Z,30.70
2024-03-01T12:17:07.536Z,36.20
2024-03-01T12:19:50.231Z,32.70
2024-03-01T12:22:36.755Z,32.40
2024-03-01T12:25:05.588Z,28.70
2024-03-01T12:27:51.876Z,30.50
2024-03-01T12:30:31.281Z,29.20
2024-03-01T12:33:20.887Z,29.60
2024-03-01T12:35:51.506Z,27.60
2024-03-01T12:38:26.869Z,27.50
2024-03-01T12:41:30.962Z,30.00
2024-03-01T12:44:17.418Z,28.90
2024-03-01T12:47:11.654Z,27.50
2024-03-01T12:50:05.013Z,28.60
2024-03-01T12:53:11.586Z,26.90
2024-03-01T12:55:49.366Z,25.80
2024-03-01T12:58:55.439Z,29.80
2024-03-01T13:01:45.807Z,26.60
2024-03-01T13:04:22.844Z,25.00
2024-03-01T13:06:53.348Z,26.40
2024-03-01T13:09:32.245Z,25.10
2024-03-01T13:12:02.768Z,24.80
2024-03-01T13:14:42.855Z,20.80
2024-03-01T13:20:31.816Z,22.30
2024-03-01T13:23:18.732Z,24.50
2024-03-01T13:26:06.974Z,25.50
2024-03-01T13:28:39.526Z,25.30
2024-03-01T13:31:14.757Z,24.20
2024-03-01T13:33:48.914Z,23.80
2024-03-01T13:36:27.425Z,23.20
2024-03-01T13:39:14.024Z,24.20
2024-03-01T13:42:08.921Z,24.60
2024-03-01T13:44:40.838Z,23.20
2024-03-01T13:47:22.709Z,22.80
2024-03-01T13:50:08.980Z,21.60
2024-03-01T13:52:39.979Z,26.00
2024-03-01T13:55:13.318Z,22.10
2024-03-01T13:57:48.344Z,22.10
2024-03-01T14:00:25.372Z,24.80
2024-03-01T14:02:54.976Z,21.80
2024-03-01T14:05:28.150Z,19.10
2024-03-01T14:08:02.333Z,21.40
2024-03-01T14:10:31.154Z,20.00
2024-03-01T14:12:59.627Z,24.40
2024-03-01T14:15:27.972Z,22.70
2024-03-01T14:17:56.136Z,27.60
2024-03-01T14:20:24.738Z,29.60
2024-03-01T14:22:57.318Z,18.70
2024-03-01T14:25:26.561Z,18.20
2024-03-01T14:27:56.129Z,21.20
2024-03-01T14:30:26.669Z,22.40
2024-03-01T14:33:10.063Z,18.60
2024-03-01T14:35:42.045Z,19.30
2024-03-01T14:38:17.901Z,18.10
2024-03-01T14:40:56.596Z,20.00
2024-03-01T14:43:25.697Z,20.90
2024-03-01T14:45:54.271Z,22.70
2024-03-01T14:48:29.551Z,24.40
2024-03-01T14:51:02.901Z,19.50
2024-03-01T14:53:39.168Z,23.90
2024-03-01T14:56:11.425Z,21.00
2024-03-01T14:58:43.103Z,22.60
2024-03-01T15:01:13.975Z,27.40
2024-03-01T15:03:42.512Z,40.90
2024-03-01T15:06:10.787Z,28.00
2024-03-01T15:08:41.920Z,33.00
2024-03-01T15:11:12.560Z,26.70
2024-03-01T15:13:44.887Z,27.70
2024-03-01T15:16:23.887Z,25.40
2024-03-01T15:18:57.450Z,25.60
2024-03-01T15:21:25.720Z,26.00
2024-03-01T15:23:57.375Z,25.70
2024-03-01T15:26:25.961Z,25.90
2024-03-01T15:28:54.158Z,27.00
2024-03-01T15:31:23.898Z,23.30
2024-03-01T15:33:52.108Z,28.40
2024-03-01T15:36:20.400Z,25.20
2024-03-01T15:38:48.975Z,26.70
2024-03-01T15:41:17.957Z,22.70
2024-03-01T15:43:47.506Z,26.30
2024-03-01T15:46:20.099Z,29.20
2024-03-01T15:48:48.416Z,24.70
2024-03-01T15:51:17.317Z,44.00
2024-03-01T15:53:45.684Z,34.10
2024-03-01T15:56:14.286Z,27.10
2024-03-01T15:58:42.697Z,28.90
2024-03-01T16:01:13.524Z,26.80
2024-03-01T16:03:41.860Z,23.00
2024-03-01T16:06:10.232Z,20.60
2024-03-01T16:08:40.211Z,24.90
2024-03-01T16:11:09.557Z,20.90
2024-03-01T16:13:39.682Z,24.70
2024-03-01T16:16:09.572Z,23.20
2024-03-01T16:18:38.783Z,23.70
2024-03-01T16:21:08.982Z,26.10
2024-03-01T16:23:42.256Z,23.00
2024-03-01T16:26:18.018Z,25.30
2024-03-01T16:28:52.385Z,28.80
2024-03-01T16:31:20.735Z,25.40
2024-03-01T16:33:49.426Z,25.20
2024-03-01T16:36:20.725Z,23.20
2024-03-01T16:38:49.731Z,27.60
2024-03-01T16:41:30.315Z,21.40
2024-03-01T16:43:59.961Z,22.90
2024-03-01T16:46:31.168Z,24.40
2024-03-01T16:49:01.513Z,22.30
2024-03-01T16:54:25.284Z,24.50
2024-03-01T16:56:54.790Z,22.60
2024-03-01T16:59:23.056Z,21.80
2024-03-01T17:01:51.543Z,24.40
2024-03-01T17:04:20.198Z,22.30
2024-03-01T17:06:49.475Z,20.00
2024-03-01T17:09:21.430Z,23.70
2024-03-01T17:11:51.374Z,21.60
2024-03-01T17:14:20.509Z,21.80
2024-03-01T17:16:54.201Z,25.40
2024-03-01T17:19:28.604Z,25.50
2024-03-01T17:22:03.391Z,23.30
2024-03-01T17:24:31.966Z,22.20
2024-03-01T17:27:00.420Z,24.20
2024-03-01T17:29:28.685Z,23.40
2024-03-01T17:31:56.947Z,28.90
2024-03-01T17:34:25.270Z,33.70
2024-03-01T17:36:53.518Z,35.00
2024-03-01T17:39:21.877Z,35.60
2024-03-01T17:41:50.065Z,29.50
2024-03-01T17:44:18.222Z,30.70
2024-03-01T17:46:46.555Z,24.20
2024-03-01T17:49:15.011Z,25.10
2024-03-01T17:51:43.504Z,25.10
2024-03-01T17:54:12.976Z,26.10
2024-03-01T17:56:42.057Z,22.50
2024-03-01T17:59:10.225Z,25.30
2024-03-01T18:01:38.430Z,22.20
2024-03-01T18:04:06.820Z,21.10
2024-03-01T18:06:38.995Z,25.40
2024-03-01T18:09:07.273Z,17.90
2024-03-01T18:11:35.532Z,24.80
2024-03-01T18:14:04.892Z,18.70
2024-03-01T18:16:33.081Z,17.30
2024-03-01T18:19:01.345Z,18.20
2024-03-01T18:21:33.098Z,18.40
2024-03-01T18:24:01.681Z,18.50
2024-03-01T18:26:31.693Z,15.80
2024-03-01T18:29:00.173Z,17.50
2024-03-01T18:31:28.372Z,18.50
2024-03-01T18:33:57.145Z,21.40
2024-03-01T18:36:25.421Z,18.30
2024-03-01T18:38:53.517Z,15.20
2024-03-01T18:41:21.652Z,15.80
2024-03-01T18:43:53.309Z,13.70
2024-03-01T18:46:21.539Z,13.30
2024-03-01T18:48:51.391Z,15.00
2024-03-01T18:51:19.772Z,15.00
2024-03-01T18:53:49.071Z,13.20
2024-03-01T18:56:20.037Z,13.30
2024-03-01T18:58:48.410Z,12.60
2024-03-01T19:01:16.633Z,13.50
2024-03-01T19:03:45.105Z,12.00
2024-03-01T19:06:13.439Z,10.50
2024-03-01T19:08:41.585Z,9.80
2024-03-01T19:11:09.713Z,9.60
2024-03-01T19:13:39.480Z,15.10
2024-03-01T19:16:07.768Z,44.60
2024-03-01T19:18:36.032Z,31.60
2024-03-01T19:21:04.507Z,49.90
2024-03-01T19:23:33.520Z,21.60
2024-03-01T19:26:02.310Z,26.90
2024-03-01T19:28:30.913Z,36.90
2024-03-01T19:31:00.754Z,76.60
2024-03-01T19:33:29.050Z,87.90
2024-03-01T19:35:57.751Z,44.00
2024-03-01T19:38:26.614Z,82.40
2024-03-01T19:40:55.094Z,26.90
2024-03-01T19:43:24.282Z,17.50
2024-03-01T19:45:52.709Z,16.10
2024-03-01T19:48:22.585Z,16.10
2024-03-01T19:50:50.871Z,13.80
2024-03-01T19:53:19.341Z,11.90
2024-03-01T19:55:47.558Z,11.90
2024-03-01T19:58:16.664Z,14.90
2024-03-01T20:00:45.676Z,13.50
2024-03-01T20:03:16.140Z,15.90
2024-03-01T20:05:45.737Z,14.30
2024-03-01T20:08:14.318Z,15.10
2024-03-01T20:10:42.533Z,13.00
2024-03-01T20:13:11.070Z,18.40
2024-03-01T20:15:39.679Z,13.20
2024-03-01T20:18:09.697Z,13.90
2024-03-01T20:20:37.938Z,17.40
2024-03-01T20:23:06.532Z,13.50
2024-03-01T20:25:34.848Z,16.10
2024-03-01T20:28:06.503Z,15.70
2024-03-01T20:30:34.932Z,14.40
2024-03-01T20:33:03.277Z,15.00
2024-03-01T20:35:31.581Z,14.20
2024-03-01T20:37:59.753Z,18.90
2024-03-01T20:40:28.097Z,14.30
2024-03-01T20:42:57.232Z,20.70
2024-03-01T20:45:25.403Z,19.60
2024-03-01T20:47:53.696Z,18.80
2024-03-01T20:50:22.155Z,18.30
2024-03-01T20:52:51.016Z,22.20
2024-03-01T20:55:19.336Z,19.80
2024-03-01T20:57:47.632Z,21.30
2024-03-01T21:00:17.120Z,21.10
2024-03-01T21:02:45.890Z,23.50
2024-03-01T21:05:14.067Z,21.40
2024-03-01T21:07:42.775Z,23.70
2024-03-01T21:10:11.073Z,24.30
2024-03-01T21:12:39.699Z,26.00
2024-03-01T21:15:10.952Z,24.60
2024-03-01T21:17:39.522Z,29.50
2024-03-01T21:20:11.791Z,28.60
2024-03-01T21:25:15.023Z,26.60
2024-03-01T21:27:43.884Z,24.50
2024-03-01T21:30:13.604Z,25.80
2024-03-01T21:32:41.874Z,26.30
2024-03-01T21:35:10.158Z,27.80
2024-03-01T21:37:38.544Z,31.50
2024-03-01T21:40:10.816Z,24.30
2024-03-01T21:42:38.986Z,24.10
2024-03-01T21:45:08.161Z,26.90
2024-03-01T21:47:36.678Z,27.20
2024-03-01T21:50:05.336Z,24.70
2024-03-01T21:52:33.502Z,27.30
2024-03-01T21:55:01.777Z,26.10
2024-03-01T21:57:30.643Z,25.60
2024-03-01T21:59:58.846Z,26.00
2024-03-01T22:02:27.326Z,31.00
2024-03-01T22:04:59.859Z,30.30
2024-03-01T22:07:29.616Z,30.80
2024-03-01T22:09:59.853Z,32.00
2024-03-01T22:12:28.320Z,38.60
2024-03-01T22:14:56.477Z,37.10
2024-03-01T22:17:25.759Z,40.30
2024-03-01T22:19:54.159Z,40.20
2024-03-01T22:22:22.328Z,43.00
2024-03-01T22:24:50.607Z,40.20
2024-03-01T22:27:18.986Z,43.00
2024-03-01T22:29:50.153Z,41.90
2024-03-01T22:32:19.124Z,39.90
2024-03-01T22:34:47.381Z,41.50
2024-03-01T22:37:16.377Z,42.20
2024-03-01T22:39:48.858Z,42.20
2024-03-01T22:42:19.318Z,43.50
2024-03-01T22:44:47.551Z,48.50
2024-03-01T22:47:16.247Z,46.30
2024-03-01T22:49:45.387Z,42.40
2024-03-01T22:52:15.567Z,50.30
2024-03-01T22:54:43.871Z,44.20
2024-03-01T22:57:15.592Z,47.70
2024-03-01T23:00:27.416Z,49.20
2024-03-01T23:02:56.684Z,44.20
2024-03-01T23:05:47.914Z,45.40
2024-03-01T23:08:42.619Z,45.80
2024-03-01T23:11:37.839Z,44.60
2024-03-01T23:14:29.619Z,44.60
2024-03-01T23:16:58.093Z,47.40
2024-03-01T23:19:28.120Z,51.00
2024-03-01T23:21:57.472Z,49.50
2024-03-01T23:24:25.728Z,49.40
2024-03-01T23:26:58.608Z,48.10
2024-03-01T23:29:26.838Z,51.30
2024-03-01T23:31:55.218Z,51.30
2024-03-01T23:34:23.400Z,53.90
2024-03-01T23:36:51.576Z,51.00
2024-03-01T23:39:19.912Z,50.00
2024-03-01T23:41:48.229Z,49.90
2024-03-01T23:44:16.392Z,52.30
2024-03-01T23:46:44.659Z,53.50
2024-03-01T23:49:13.760Z,49.30
2024-03-01T23:51:42.053Z,51.10
2024-03-01T23:54:10.439Z,53.30
2024-03-01T23:56:38.586Z,51.90
2024-03-01T23:59:09.104Z,53.60
